Weather at Napanee Airstrip

Public forecast

Using degrees Celsius for public forecast. Weather courtesy of forecast.io.

Closest aviation weather report (METAR) to Napanee Airstrip

Closest report is Kingston Norman Rogers Airport, 17.2 nm (31.8 km) E.

2024/05/23 03:00 (retrieved 1 hour ago)

CYGK 230300Z 19010KT 15SM FEW045 SCT230 19/18 A2972 RMK SC2CI2 LAST STFD OBS/NXT 231000Z PRESFR SLP067 DENSITY ALT 1100FT

Closest aviation forecast (TAF) to Napanee Airstrip

Forecast is more than 6 hours old.

Closest forecast is Kingston Norman Rogers Airport, 17.2 nm (31.8 km) E.

2024/05/22 20:00 (retrieved 8 hours ago)

TAF CYGK 221940Z 2220/2303 19008KT P6SM SCT060 BKN100 TEMPO 2221/2301 P6SM -SHRA PROB30 2221/2301 VRB15G25KT 3SM TSRA BR BKN030 OVC060CB FM230100 21008KT P6SM FEW060 RMK NXT FCST BY 231200Z